createdAt,value
2023-03-05T00:00:29.809Z,100570.72
2023-03-05T00:03:18.461Z,100554.06
2023-03-05T00:06:07.896Z,100470.38
2023-03-05T00:08:58.231Z,100569.25
2023-03-05T00:11:46.668Z,100561.44
2023-03-05T00:14:35.111Z,100560.94
2023-03-05T00:17:25.010Z,100567.53
2023-03-05T00:20:14.000Z,100561.97
2023-03-05T00:23:02.534Z,100561.69
2023-03-05T00:25:51.133Z,100551.47
2023-03-05T00:28:39.662Z,100559.84
2023-03-05T00:31:30.988Z,100556.50
2023-03-05T00:34:21.556Z,100549.84
2023-03-05T00:37:10.029Z,100547.84
2023-03-05T00:39:58.735Z,100540.09
2023-03-05T00:42:47.250Z,100545.97
2023-03-05T00:45:35.875Z,100560.44
2023-03-05T00:48:25.470Z,100543.16
2023-03-05T00:51:15.403Z,100549.19
2023-03-05T00:54:04.475Z,100478.66
2023-03-05T00:56:53.006Z,100534.81
2023-03-05T00:59:41.526Z,100530.00
2023-03-05T01:02:29.949Z,100528.22
2023-03-05T01:05:19.084Z,100525.50
2023-03-05T01:08:08.908Z,100527.19
2023-03-05T01:10:57.549Z,100526.19
2023-03-05T01:13:46.036Z,100523.63
2023-03-05T01:16:34.600Z,100517.38
2023-03-05T01:19:23.108Z,100523.31
2023-03-05T01:22:11.628Z,100518.16
2023-03-05T01:25:01.677Z,100512.19
2023-03-05T01:27:50.120Z,100505.72
2023-03-05T01:30:38.600Z,100504.22
2023-03-05T01:33:27.145Z,100503.53
2023-03-05T01:36:17.487Z,100500.09
2023-03-05T01:39:05.959Z,100492.22
2023-03-05T01:41:55.786Z,100496.84
2023-03-05T01:45:03.334Z,100497.78
2023-03-05T01:47:51.931Z,100481.66
2023-03-05T01:50:40.401Z,100459.47
2023-03-05T01:53:28.917Z,100493.00
2023-03-05T01:56:17.956Z,100502.16
2023-03-05T01:59:08.066Z,100492.06
2023-03-05T02:01:58.084Z,100472.91
2023-03-05T02:04:51.764Z,100471.41
2023-03-05T02:07:42.952Z,100475.09
2023-03-05T02:10:33.741Z,100477.91
2023-03-05T02:13:24.241Z,100474.94
2023-03-05T02:16:14.177Z,100466.31
2023-03-05T02:19:03.511Z,100467.91
2023-03-05T02:21:53.469Z,100384.41
2023-03-05T02:24:41.994Z,100470.19
2023-03-05T02:27:35.050Z,100466.09
2023-03-05T02:30:23.596Z,100468.41
2023-03-05T02:33:12.321Z,100462.94
2023-03-05T02:36:00.837Z,100459.09
2023-03-05T02:38:50.952Z,100459.09
2023-03-05T02:41:39.454Z,100459.63
2023-03-05T02:44:28.186Z,100460.63
2023-03-05T02:47:16.720Z,100450.69
2023-03-05T02:50:06.955Z,100441.50
2023-03-05T02:52:55.402Z,100444.13
2023-03-05T02:55:47.632Z,100429.94
2023-03-05T02:58:36.087Z,100437.66
2023-03-05T03:01:24.689Z,100435.31
2023-03-05T03:04:13.218Z,100438.38
2023-03-05T03:07:01.727Z,100430.69
2023-03-05T03:09:50.272Z,100435.06
2023-03-05T03:12:40.359Z,100423.88
2023-03-05T03:15:29.098Z,100404.69
2023-03-05T03:18:17.582Z,100415.88
2023-03-05T03:21:06.835Z,100415.72
2023-03-05T03:23:55.377Z,100419.53
2023-03-05T03:26:43.870Z,100407.59
2023-03-05T03:29:33.790Z,100401.59
2023-03-05T03:32:22.310Z,100404.75
2023-03-05T03:35:12.047Z,100406.94
2023-03-05T03:38:00.682Z,100371.47
2023-03-05T03:40:49.127Z,100393.66
2023-03-05T03:43:38.170Z,100391.59
2023-03-05T03:46:28.104Z,100394.06
2023-03-05T03:49:19.165Z,100322.78
2023-03-05T03:52:07.974Z,100388.75
2023-03-05T03:54:55.942Z,100387.44
2023-03-05T03:57:44.449Z,100376.03
2023-03-05T04:00:32.967Z,100387.81
2023-03-05T04:03:22.811Z,100331.19
2023-03-05T04:06:11.378Z,100391.78
2023-03-05T04:08:59.960Z,100383.63
2023-03-05T04:11:48.508Z,100373.00
2023-03-05T04:14:37.268Z,100365.19
2023-03-05T04:17:25.821Z,100364.31
2023-03-05T04:20:15.805Z,100371.16
2023-03-05T04:23:04.287Z,100363.22
2023-03-05T04:25:52.750Z,100358.91
2023-03-05T04:28:41.223Z,100355.59
2023-03-05T04:31:29.725Z,100344.63
2023-03-05T04:34:18.301Z,100355.13
2023-03-05T04:37:08.136Z,100326.66
2023-03-05T04:39:56.840Z,100357.06
2023-03-05T04:42:45.756Z,100356.56
2023-03-05T04:45:34.535Z,100356.56
2023-03-05T04:48:23.054Z,100356.91
2023-03-05T04:51:11.486Z,100352.25
2023-03-05T04:54:01.281Z,100356.91
2023-03-05T04:56:49.746Z,100348.13
2023-03-05T04:59:38.679Z,100350.41
2023-03-05T05:02:27.188Z,100331.81
2023-03-05T05:05:18.222Z,100299.56
2023-03-05T05:08:06.766Z,100357.91
2023-03-05T05:11:01.818Z,100355.72
2023-03-05T05:13:50.413Z,100350.94
2023-03-05T05:16:38.872Z,100348.53
2023-03-05T05:19:27.693Z,100348.22
2023-03-05T05:22:16.181Z,100344.88
2023-03-05T05:25:05.520Z,100339.94
2023-03-05T05:27:55.378Z,100331.28
2023-03-05T05:30:43.863Z,100336.94
2023-03-05T05:33:32.308Z,100332.44
2023-03-05T05:36:22.269Z,100340.41
2023-03-05T05:39:10.917Z,100330.63
2023-03-05T05:41:59.399Z,100338.25
2023-03-05T05:44:49.240Z,100337.75
2023-03-05T05:47:37.908Z,100340.72
2023-03-05T05:50:27.211Z,100333.25
2023-03-05T05:53:15.716Z,100336.06
2023-03-05T05:56:05.250Z,100307.09
2023-03-05T05:58:53.811Z,100335.56
2023-03-05T06:01:43.639Z,100346.19
2023-03-05T06:04:32.229Z,100339.22
2023-03-05T06:07:20.755Z,100336.56
2023-03-05T06:10:10.861Z,100334.38
2023-03-05T06:12:59.464Z,100332.59
2023-03-05T06:15:56.796Z,100340.41
2023-03-05T06:18:46.625Z,100332.44
2023-03-05T06:21:35.135Z,100331.25
2023-03-05T06:24:23.592Z,100339.88
2023-03-05T06:27:12.008Z,100319.09
2023-03-05T06:30:00.625Z,100325.44
2023-03-05T06:32:49.101Z,100319.31
2023-03-05T06:35:40.424Z,100312.31
2023-03-05T06:38:28.965Z,100326.44
2023-03-05T06:41:19.436Z,100325.97
2023-03-05T06:44:07.994Z,100329.41
2023-03-05T06:46:56.462Z,100315.63
2023-03-05T06:49:44.979Z,100343.53
2023-03-05T06:52:36.016Z,100330.25
2023-03-05T06:55:24.477Z,100328.25
2023-03-05T06:58:13.004Z,100325.44
2023-03-05T07:01:01.566Z,100313.38
2023-03-05T07:03:51.191Z,100316.50
2023-03-05T07:06:42.040Z,100312.41
2023-03-05T07:09:31.868Z,100311.03
2023-03-05T07:12:20.446Z,100311.41
2023-03-05T07:15:10.038Z,100316.03
2023-03-05T07:17:58.716Z,100313.22
2023-03-05T07:20:47.353Z,100306.25
2023-03-05T07:23:36.544Z,100309.41
2023-03-05T07:26:26.598Z,100310.41
2023-03-05T07:29:15.013Z,100306.63
2023-03-05T07:32:03.501Z,100312.25
2023-03-05T07:34:51.994Z,100314.22
2023-03-05T07:37:40.805Z,100288.09
2023-03-05T07:40:29.364Z,100310.94
2023-03-05T07:43:19.258Z,100311.13
2023-03-05T07:46:09.434Z,100308.97
2023-03-05T07:48:58.343Z,100304.00
2023-03-05T07:51:46.893Z,100308.31
2023-03-05T07:54:37.549Z,100310.31
2023-03-05T07:57:27.125Z,100310.16
2023-03-05T08:00:18.018Z,100310.50
2023-03-05T08:03:06.641Z,100309.00
2023-03-05T08:05:55.118Z,100307.03
2023-03-05T08:08:43.792Z,100294.41
2023-03-05T08:11:32.311Z,100299.06
2023-03-05T08:14:20.801Z,100304.06
2023-03-05T08:17:10.647Z,100293.41
2023-03-05T08:20:00.228Z,100286.94
2023-03-05T08:22:48.759Z,100287.94
2023-03-05T08:25:38.375Z,100295.94
2023-03-05T08:28:27.062Z,100283.31
2023-03-05T08:31:16.687Z,100300.25
2023-03-05T08:34:07.016Z,100296.25
2023-03-05T08:36:55.712Z,100297.25
2023-03-05T08:39:44.212Z,100295.44
2023-03-05T08:42:32.717Z,100289.94
2023-03-05T08:45:21.247Z,100289.63
2023-03-05T08:48:09.718Z,100290.94
2023-03-05T08:51:00.104Z,100287.59
2023-03-05T08:53:48.733Z,100246.72
2023-03-05T08:56:38.259Z,100294.75
2023-03-05T08:59:27.310Z,100266.13
2023-03-05T09:02:16.656Z,100271.63
2023-03-05T09:05:06.182Z,100270.59
2023-03-05T09:07:56.404Z,100288.22
2023-03-05T09:10:45.802Z,100229.41
2023-03-05T09:13:34.933Z,100277.94
2023-03-05T09:16:24.114Z,100285.06
2023-03-05T09:19:15.307Z,100280.22
2023-03-05T09:22:04.181Z,100280.84
2023-03-05T09:24:54.516Z,100267.03
2023-03-05T09:27:43.916Z,100280.06
2023-03-05T09:30:32.934Z,100272.69
2023-03-05T09:33:21.988Z,100260.06
2023-03-05T09:36:23.371Z,100250.22
2023-03-05T09:39:12.204Z,100253.88
2023-03-05T09:42:18.942Z,100253.41
2023-03-05T09:45:17.239Z,100267.38
2023-03-05T09:48:12.644Z,100252.75
2023-03-05T09:51:02.861Z,100246.94
2023-03-05T09:53:57.199Z,100233.31
2023-03-05T09:56:47.920Z,100238.31
2023-03-05T09:59:45.561Z,100246.41
2023-03-05T10:02:36.840Z,100248.44
2023-03-05T10:05:29.256Z,100254.56
2023-03-05T10:08:21.838Z,100243.56
2023-03-05T10:11:30.175Z,100244.19
2023-03-05T10:14:26.182Z,100249.16
2023-03-05T10:17:52.020Z,100239.53
2023-03-05T10:20:56.386Z,100232.84
2023-03-05T10:23:53.092Z,100236.97
2023-03-05T10:26:53.681Z,100240.81
2023-03-05T10:29:53.435Z,100240.16
2023-03-05T10:32:47.432Z,100233.69
2023-03-05T10:35:45.999Z,100187.22
2023-03-05T10:38:48.158Z,100232.38
2023-03-05T10:41:42.644Z,100215.72
2023-03-05T10:44:36.205Z,100182.69
2023-03-05T10:47:28.810Z,100183.88
2023-03-05T10:50:21.763Z,100215.22
2023-03-05T10:53:16.751Z,100213.22
2023-03-05T10:56:06.566Z,100207.41
2023-03-05T10:58:55.173Z,100203.63
2023-03-05T11:01:43.700Z,100197.88
2023-03-05T11:04:36.707Z,100190.16
2023-03-05T11:07:38.284Z,100142.75
2023-03-05T11:10:26.806Z,100185.59
2023-03-05T11:13:25.242Z,100182.94
2023-03-05T11:16:20.808Z,100183.97
2023-03-05T11:19:19.061Z,100182.31
2023-03-05T11:22:16.369Z,100149.00
2023-03-05T11:25:16.052Z,100144.47
2023-03-05T11:28:04.892Z,100171.69
2023-03-05T11:30:59.520Z,100160.22
2023-03-05T11:33:57.670Z,100160.69
2023-03-05T11:37:03.709Z,100161.00
2023-03-05T11:40:17.258Z,100158.19
2023-03-05T11:43:06.058Z,100082.06
2023-03-05T11:45:56.982Z,100159.41
2023-03-05T11:48:47.360Z,100146.44
2023-03-05T11:51:42.177Z,100149.09
2023-03-05T11:54:36.208Z,100151.59
2023-03-05T11:57:27.270Z,100149.09
2023-03-05T12:00:17.673Z,100139.69
2023-03-05T12:03:10.782Z,100138.66
2023-03-05T12:06:02.768Z,100098.66
2023-03-05T12:08:53.550Z,100132.19
2023-03-05T12:11:42.253Z,100135.69
2023-03-05T12:14:38.201Z,100078.97
2023-03-05T12:17:31.524Z,100116.22
2023-03-05T12:20:26.541Z,100102.75
2023-03-05T12:23:17.110Z,100105.88
2023-03-05T12:26:06.180Z,100105.22
2023-03-05T12:28:57.196Z,100098.63
2023-03-05T12:31:47.186Z,100096.03
2023-03-05T12:34:51.704Z,100089.97
2023-03-05T12:38:24.175Z,100080.50
2023-03-05T12:41:43.296Z,100075.84
2023-03-05T12:44:31.821Z,100072.16
2023-03-05T12:47:23.564Z,100061.41
2023-03-05T12:50:44.987Z,100063.59
2023-03-05T12:53:33.492Z,100061.34
2023-03-05T12:56:25.116Z,100058.13
2023-03-05T12:59:14.860Z,100067.84
2023-03-05T13:02:05.786Z,100055.91
2023-03-05T13:04:58.707Z,100052.09
2023-03-05T13:07:47.237Z,100059.38
2023-03-05T13:10:35.758Z,100041.22
2023-03-05T13:13:25.517Z,100039.38
2023-03-05T13:16:19.328Z,100040.72
2023-03-05T13:19:16.702Z,100036.13
2023-03-05T13:22:12.564Z,100031.47
2023-03-05T13:25:15.378Z,100037.78
2023-03-05T13:28:04.460Z,100019.56
2023-03-05T13:30:54.034Z,100031.47
2023-03-05T13:33:53.083Z,100022.88
2023-03-05T13:36:41.789Z,100027.94
2023-03-05T13:39:34.242Z,100022.84
2023-03-05T13:42:25.796Z,100024.03
2023-03-05T13:45:23.267Z,100019.25
2023-03-05T13:48:20.130Z,100021.91
2023-03-05T13:51:09.633Z,100015.28
2023-03-05T13:53:58.328Z,100007.88
2023-03-05T13:56:53.559Z,100005.22
2023-03-05T13:59:42.548Z,99887.47
2023-03-05T14:02:33.394Z,99988.31
2023-03-05T14:05:22.478Z,99992.94
2023-03-05T14:08:17.976Z,99997.91
2023-03-05T14:11:15.435Z,99986.31
2023-03-05T14:14:14.716Z,99984.31
2023-03-05T14:17:23.169Z,99973.19
2023-03-05T14:20:24.143Z,99982.28
2023-03-05T14:23:27.494Z,99973.75
2023-03-05T14:26:28.733Z,99967.94
2023-03-05T14:29:21.124Z,99936.22
2023-03-05T14:32:29.910Z,99968.69
2023-03-05T14:35:22.468Z,99923.09
2023-03-05T14:38:21.397Z,99953.13
2023-03-05T14:41:37.517Z,99950.59
2023-03-05T14:44:28.301Z,99944.44
2023-03-05T14:47:16.931Z,99937.47
2023-03-05T14:50:06.706Z,99823.22
2023-03-05T14:52:58.127Z,99826.28
2023-03-05T14:55:50.212Z,99869.97
2023-03-05T14:58:38.961Z,99917.34
2023-03-05T15:01:28.995Z,99913.72
2023-03-05T15:04:19.200Z,99912.22
2023-03-05T15:07:09.045Z,99904.44
2023-03-05T15:09:59.547Z,99888.34
2023-03-05T15:12:50.303Z,99910.56
2023-03-05T15:15:39.833Z,99892.47
2023-03-05T15:18:29.734Z,99892.94
2023-03-05T15:21:18.463Z,99894.22
2023-03-05T15:24:07.765Z,99887.44
2023-03-05T15:26:57.138Z,99882.47
2023-03-05T15:29:45.700Z,99882.84
2023-03-05T15:32:34.361Z,99877.34
2023-03-05T15:35:25.473Z,99869.81
2023-03-05T15:38:15.262Z,99866.03
2023-03-05T15:41:03.750Z,99859.72
2023-03-05T15:43:52.423Z,99858.41
2023-03-05T15:46:41.110Z,99860.44
2023-03-05T15:49:29.658Z,99851.44
2023-03-05T15:52:19.467Z,99853.00
2023-03-05T15:55:09.317Z,99847.88
2023-03-05T15:57:57.805Z,99844.47
2023-03-05T16:00:47.372Z,99844.63
2023-03-05T16:03:35.889Z,99842.06
2023-03-05T16:06:25.353Z,99843.25
2023-03-05T16:09:16.727Z,99790.31
2023-03-05T16:12:09.385Z,99837.28
2023-03-05T16:14:58.029Z,99827.59
2023-03-05T16:17:50.098Z,99828.75
2023-03-05T16:20:38.635Z,99822.97
2023-03-05T16:23:27.248Z,99808.84
2023-03-05T16:26:17.127Z,99807.63
2023-03-05T16:29:06.102Z,99813.31
2023-03-05T16:31:54.651Z,99812.88
2023-03-05T16:34:43.153Z,99806.25
2023-03-05T16:37:31.650Z,99803.75
2023-03-05T16:40:20.485Z,99794.78
2023-03-05T16:43:10.274Z,99785.72
2023-03-05T16:45:58.733Z,99795.16
2023-03-05T16:48:47.336Z,99780.41
2023-03-05T16:51:36.177Z,99790.56
2023-03-05T16:54:24.626Z,99785.59
2023-03-05T16:57:13.196Z,99788.41
2023-03-05T17:00:04.156Z,99776.34
2023-03-05T17:02:52.696Z,99781.44
2023-03-05T17:05:41.323Z,99699.97
2023-03-05T17:08:29.786Z,99785.84
2023-03-05T17:11:18.608Z,99776.00
2023-03-05T17:14:07.271Z,99753.22
2023-03-05T17:16:57.111Z,99782.25
2023-03-05T17:19:45.764Z,99782.59
2023-03-05T17:22:34.252Z,99783.19
2023-03-05T17:25:22.746Z,99790.69
2023-03-05T17:28:11.261Z,99756.59
2023-03-05T17:31:01.361Z,99786.78
2023-03-05T17:33:51.786Z,99792.78
2023-03-05T17:36:40.366Z,99789.44
2023-03-05T17:39:28.931Z,99786.78
2023-03-05T17:42:20.411Z,99790.47
2023-03-05T17:45:09.627Z,99786.13
2023-03-05T17:47:58.852Z,99782.84
2023-03-05T17:50:48.928Z,99777.72
2023-03-05T17:53:39.436Z,99775.03
2023-03-05T17:56:27.934Z,99779.72
2023-03-05T17:59:16.613Z,99767.97
2023-03-05T18:02:05.177Z,99785.22
2023-03-05T18:04:53.649Z,99774.94
2023-03-05T18:07:43.619Z,99777.13
2023-03-05T18:10:32.898Z,99776.28
2023-03-05T18:13:21.419Z,99780.16
2023-03-05T18:16:10.358Z,99775.19
2023-03-05T18:18:58.816Z,99777.00
2023-03-05T18:21:47.596Z,99769.38
2023-03-05T18:24:37.480Z,99767.25
2023-03-05T18:27:26.206Z,99767.16
2023-03-05T18:30:14.969Z,99762.38
2023-03-05T18:33:03.551Z,99748.97
2023-03-05T18:35:53.004Z,99750.31
2023-03-05T18:38:41.649Z,99753.66
2023-03-05T18:41:32.026Z,99732.31
2023-03-05T18:44:20.824Z,99755.16
2023-03-05T18:47:09.395Z,99703.56
2023-03-05T18:49:57.957Z,99744.25
2023-03-05T18:52:47.914Z,99737.44
2023-03-05T18:55:36.481Z,99737.66
2023-03-05T18:58:26.313Z,99737.16
2023-03-05T19:01:17.239Z,99733.22
2023-03-05T19:04:06.007Z,99725.00
2023-03-05T19:06:54.481Z,99739.47
2023-03-05T19:09:52.251Z,99726.22
2023-03-05T19:12:49.033Z,99726.88
2023-03-05T19:15:41.650Z,99734.50
2023-03-05T19:18:33.752Z,99732.19
2023-03-05T19:21:22.226Z,99735.69
2023-03-05T19:24:12.010Z,99720.63
2023-03-05T19:27:01.358Z,99724.75
2023-03-05T19:29:50.154Z,99658.97
2023-03-05T19:32:40.157Z,99716.28
2023-03-05T19:35:28.724Z,99717.22
2023-03-05T19:38:17.420Z,99717.56
2023-03-05T19:41:06.757Z,99681.47
2023-03-05T19:43:55.310Z,99716.53
2023-03-05T19:46:43.854Z,99709.59
2023-03-05T19:49:33.765Z,99699.78
2023-03-05T19:52:22.301Z,99706.09
2023-03-05T19:55:11.627Z,99683.94
2023-03-05T19:58:00.068Z,99700.97
2023-03-05T20:00:50.422Z,99687.69
2023-03-05T20:03:39.297Z,99685.06
2023-03-05T20:06:30.387Z,99692.41
2023-03-05T20:09:19.038Z,99687.63
2023-03-05T20:12:08.093Z,99692.22
2023-03-05T20:14:56.546Z,99692.69
2023-03-05T20:17:45.748Z,99677.16
2023-03-05T20:20:34.245Z,99693.59
2023-03-05T20:23:24.497Z,99685.13
2023-03-05T20:26:13.049Z,99687.13
2023-03-05T20:29:01.787Z,99677.88
2023-03-05T20:31:50.480Z,99678.88
2023-03-05T20:34:38.960Z,99678.03
2023-03-05T20:37:39.950Z,99684.81
2023-03-05T20:40:30.023Z,99665.41
2023-03-05T20:43:18.714Z,99679.34
2023-03-05T20:46:07.248Z,99670.72
2023-03-05T20:48:57.771Z,99676.84
2023-03-05T20:51:49.510Z,99663.13
2023-03-05T20:54:38.138Z,99661.78
2023-03-05T20:57:28.073Z,99677.03
2023-03-05T21:00:17.554Z,99663.13
2023-03-05T21:03:09.423Z,99671.09
2023-03-05T21:05:57.947Z,99660.91
2023-03-05T21:08:46.533Z,99653.25
2023-03-05T21:11:35.822Z,99648.63
2023-03-05T21:14:25.655Z,99646.75
2023-03-05T21:17:14.114Z,99641.97
2023-03-05T21:20:05.558Z,99645.97
2023-03-05T21:22:54.091Z,99634.50
2023-03-05T21:25:42.702Z,99629.47
2023-03-05T21:28:31.769Z,99635.56
2023-03-05T21:31:23.095Z,99635.38
2023-03-05T21:34:12.196Z,99634.50
2023-03-05T21:37:00.667Z,99632.81
2023-03-05T21:39:49.196Z,99627.69
2023-03-05T21:42:38.027Z,99609.81
2023-03-05T21:45:28.331Z,99546.25
2023-03-05T21:48:18.346Z,99603.25
2023-03-05T21:51:08.887Z,99591.72
2023-03-05T21:53:57.324Z,99604.47
2023-03-05T21:56:46.606Z,99594.75
2023-03-05T21:59:35.432Z,99597.50
2023-03-05T22:02:24.205Z,99535.63
2023-03-05T22:05:15.530Z,99577.94
2023-03-05T22:08:04.396Z,99524.13
2023-03-05T22:10:52.899Z,99571.09
2023-03-05T22:13:41.963Z,99573.09
2023-03-05T22:16:30.501Z,99548.06
2023-03-05T22:19:19.016Z,99563.25
2023-03-05T22:22:08.885Z,99558.69
2023-03-05T22:24:57.383Z,99557.63
2023-03-05T22:27:45.999Z,99558.69
2023-03-05T22:30:34.509Z,99559.22
2023-03-05T22:33:23.380Z,99554.25
2023-03-05T22:36:13.569Z,99553.25
2023-03-05T22:39:03.503Z,99547.16
2023-03-05T22:41:52.011Z,99546.72
2023-03-05T22:44:40.484Z,99547.34
2023-03-05T22:47:29.912Z,99513.44
2023-03-05T22:50:18.633Z,99530.78
2023-03-05T22:53:07.316Z,99530.78
2023-03-05T22:55:57.267Z,99529.13
2023-03-05T22:58:45.924Z,99525.31
2023-03-05T23:01:34.400Z,99521.16
2023-03-05T23:04:40.268Z,99515.41
2023-03-05T23:07:30.344Z,99514.75
2023-03-05T23:10:21.245Z,99509.44
2023-03-05T23:13:11.050Z,99506.28
2023-03-05T23:15:59.573Z,99495.59
2023-03-05T23:18:48.020Z,99501.38
2023-03-05T23:21:36.537Z,99497.72
2023-03-05T23:24:25.005Z,99477.72
2023-03-05T23:27:15.921Z,99486.44
2023-03-05T23:30:16.392Z,99473.13
2023-03-05T23:33:06.642Z,99485.72
2023-03-05T23:35:56.531Z,99472.69
2023-03-05T23:38:45.081Z,99483.78
2023-03-05T23:41:33.543Z,99478.50
2023-03-05T23:44:22.040Z,99479.28
2023-03-05T23:47:11.867Z,99476.59
2023-03-05T23:50:00.345Z,99453.47
2023-03-05T23:52:49.264Z,99465.59
2023-03-05T23:55:41.270Z,99467.56
2023-03-05T23:58:29.812Z,99465.13
